Little Rock Air Force Base
KLRF : now visible

Airfield :











YOU CAN JOIN US ON...

 
LOGIN :

Register | Disclaimer

   EN    FR    IT 

 









Legend :    VFR   Marginal VFR   IFR   Intensive IFR   Very Intensive IFR
Visi :
Ceiling :
>= 8 km
>= 3000ft
5 to 8 km
1000 to 3000 ft
1500m to 5 km
500 to 1000 ft
800 to 1500m
200 to 500 ft
< 800m
< 200 ft
Symbols :   Thunderstorms  Fog  Heavy snow  Heavy precipitations  Wind > 20 kt






- Airport Elevation : 311 ft


KLRF - Little Rock Air Force Base

CURRENT METAR :
  • 282156Z AUTO 05008KT 5SM -RA BR OVC003 06/06 A2998 RMK AO2 SLP157 P0003 T00580057

EXPIRED METARs :
  • 282124Z AUTO 06007KT 5SM -RA BR OVC003 06/06 A2999 RMK AO2 SLP160
  • 282103Z 05007KT 2 3/4SM -RA BR OVC002 06/06 A3000 RMK AO2A TWR VIS 1/2 SLP164
  • 282037Z 07006KT 2 1/2SM -RA BR OVC004 06/06 A3000 RMK AO2A TWR VIS 1/2 VIS 2 1/2V4 DZB12E15RAB15 SLP164
  • 282023Z 05007KT 4SM -RA BR OVC004 06/06 A3000 RMK AO2A TWR VIS 1/2 DZB12E15RAB15 SLP164
  • 282012Z 05006KT 4SM -DZ BR OVC004 07/07 A3000 RMK AO2A TWR VIS 1 DZB12 SLP163
  • 281956Z 06006KT 4SM BR OVC003 07/06 A3000 RMK AO2A TWR VIS 2 1/2 SLP163 T00650064

TAF AMD TAF KLRF
Valid from the 28 at 18:00 until the 29 at 21:00 UTC


281837Z 2818/2921 08009KT 9000 BR OVC003 620609 QNH3000INS
BECMG 2820/2821 09009KT 9999 VCSH OVC006 620609 QNH2999INS
TEMPO 2821/2824 8000 -RA
BECMG 2900/2901 VRB06KT 9999 NSW OVC005 620609 QNH2998INS
BECMG 2903/2904 VRB06KT 9000 -RA OVC006 620609 QNH2994INS
BECMG 2907/2908 VRB03KT 9999 NSW OVC004 620609 QNH2993INS
BECMG 2912/2913 05009KT 9999 OVC003 620609 QNH2998INS TX08/2820Z TN04/2911Z



MET'MAP, your aeronautical weather chart ! - Copyright ORBIFLY December 2007 - Disclaimer

ORBIFLY MET'MAP TEAM :

Programming & Development : Alexandra Zaïnal
Concept & original design : Baudouin d'Aumeries
Assistance for programming : Marc-Olivier Méhu
Technical & hardware support : Manuel Goepfert

Contact : metmap@orbifly.com




SOURCES & CREDITS :

   NOAA       Earth
Advisory